Terminal Aerodrome Forecast
Issued by NWS Columbia, SC

Home | Current Version | Previous Version | Text Only | Print | Product List | Glossary On
Versions: 1 2 3 4 5 6 7 8 9 10 11 12 13 14 15 16 17 18 19 20 21 22 23 24 25 26 27 28 29 30 31 32 33 34 35 36 37 38 39 40 41 42 43 44 45 46 47 48
821
FTAK31 PAJN 211346 AAA
TAFAGS
TAF AMD
PAGS 211346Z 2114/2212 00000KT 6SM -SN BKN013 BKN020 OVC045
     FM211600 32003KT P6SM -SN SCT025 OVC040
     FM212200 32005KT P6SM BKN060
     FM220600 00000KT P6SM SCT070
     FM220900 00000KT 1SM BR VCFG FEW003 SCT070
      AMD LTD TO CLD VIS AND WIND=

USA.gov is the U.S. government's official web portal to all federal, state and local government web resources and services.